METAR AND TAF INFORMATION
METAR FOR OIII
ADDS - METARS form results

(1036 UTC 22 April 2018)
Data provider http://aviationweather.gov/adds/metars/
 
METAR text: OIII 221020Z 19008KT 8000 FEW040 SCT100 22/01 Q1012 A2991
Conditions at: OIII (TEHRAN/MEHRABAD , IR) observed 1020 UTC 22 April 2018
Temperature: 22.0°C (72°F)
Dewpoint: 1.0°C (34°F) [RH = 25%]
Pressure (altimeter): 29.88 inches Hg (1012.0 mb)
Winds: from the S (190 degrees) at 9 MPH (8 knots; 4.2 m/s)
Visibility: 5 miles (8 km)
Ceiling: at least 12,000 feet AGL
Clouds: few clouds at 4000 feet AGL
scattered clouds at 10000 feet AGL
Weather: no significant weather observed at this time

METAR text: OIII 221000Z 13006KT 8000 FEW040 SCT100 21/02 Q1013 A2992 NOSIG
Conditions at: OIII (TEHRAN/MEHRABAD , IR) observed 1000 UTC 22 April 2018
Temperature: 21.0°C (70°F)
Dewpoint: 2.0°C (36°F) [RH = 28%]
Pressure (altimeter): 29.91 inches Hg (1013.0 mb)
Winds: from the SE (130 degrees) at 7 MPH (6 knots; 3.1 m/s)
Visibility: 5 miles (8 km)
Ceiling: at least 12,000 feet AGL
Clouds: few clouds at 4000 feet AGL
scattered clouds at 10000 feet AGL
Weather: no significant weather observed at this time

METAR text: OIII 220957Z 13006KT 8000 FEW040 SCT100 21/02 Q1013 A2992 NOSIG
Conditions at: OIII (TEHRAN/MEHRABAD , IR) observed 0957 UTC 22 April 2018
Temperature: 21.0°C (70°F)
Dewpoint: 2.0°C (36°F) [RH = 28%]
Pressure (altimeter): 29.91 inches Hg (1013.0 mb)
Winds: from the SE (130 degrees) at 7 MPH (6 knots; 3.1 m/s)
Visibility: 5 miles (8 km)
Ceiling: at least 12,000 feet AGL
Clouds: few clouds at 4000 feet AGL
scattered clouds at 10000 feet AGL
Weather: no significant weather observed at this time

Forecast for: OIII (TEHRAN/MEHRABAD , IR)
Text: TAF OIII 220530Z 2206/2312 32005MPS 6000 FEW035CB SCT040 BKN100
Forecast period: 0600 to 1600 UTC 22 April 2018
Forecast type: FROM: standard forecast or significant change
Winds: from the NW (320 degrees) at 12 MPH (10 knots; 5.2 m/s)
Visibility: 4 miles (6 km)
Ceiling: 10000 feet AGL
Clouds: few clouds at 3500 feet AGL
scattered clouds at 4000 feet AGL
broken clouds at 10000 feet AGL
Weather: no significant weather forecast for this period
Forecast for: OIII (TEHRAN/MEHRABAD , IR)
Text: TAF OIII 220530Z 2206/2312 32005MPS 6000 FEW035CB SCT040 BKN100
Forecast period: 0600 to 1600 UTC 22 April 2018
Forecast type: FROM: standard forecast or significant change
Winds: from the NW (320 degrees) at 12 MPH (10 knots; 5.2 m/s)
Visibility: 4 miles (6 km)
Ceiling: 10000 feet AGL
Clouds: few clouds at 3500 feet AGL
scattered clouds at 4000 feet AGL
broken clouds at 10000 feet AGL
Weather: no significant weather forecast for this period
Forecast for: OIII (TEHRAN/MEHRABAD , IR)
Text: TAF OIII 220530Z 2206/2312 32005MPS 6000 FEW035CB SCT040 BKN100
Forecast period: 1000 to 1600 UTC 22 April 2018
Forecast type: TEMPORARY: The following changes expected for less than half the time period
Winds: from the WSW (240 degrees) at 22 MPH (19 knots; 9.9 m/s)
Visibility: 3 miles (5 km)
Ceiling: 9000 feet AGL
Clouds: scattered clouds at 3000 feet AGL
scattered clouds at 3500 feet AGL
overcast cloud deck at 9000 feet AGL
Weather: TS SHRA  (thunderstorm, rain showers)
Forecast for: OIII (TEHRAN/MEHRABAD , IR)
Text: TAF OIII 220530Z 2206/2312 32005MPS 6000 FEW035CB SCT040 BKN100
Forecast period: 1000 to 1600 UTC 22 April 2018
Forecast type: TEMPORARY: The following changes expected for less than half the time period
Winds: from the WSW (240 degrees) at 22 MPH (19 knots; 9.9 m/s)
Visibility: 3 miles (5 km)
Ceiling: 9000 feet AGL
Clouds: scattered clouds at 3000 feet AGL
scattered clouds at 3500 feet AGL
overcast cloud deck at 9000 feet AGL
Weather: TS SHRA  (thunderstorm, rain showers)
Forecast for: OIII (TEHRAN/MEHRABAD , IR)
Text: TAF OIII 220530Z 2206/2312 32005MPS 6000 FEW035CB SCT040 BKN100
Forecast period: 1600 UTC 22 April 2018 to 0000 UTC 23 April 2018
Forecast type: BECOMING: Conditions expected to become as follows by 1800 UTC 22 April 2018
Winds: from the ENE (60 degrees) at 14 MPH (12 knots; 6.2 m/s)
Visibility: 4 miles (6 km)
Ceiling: 10000 feet AGL
Clouds: few clouds at 3500 feet AGL
scattered clouds at 4000 feet AGL
broken clouds at 10000 feet AGL
Weather: no significant weather forecast for this period
Forecast for: OIII (TEHRAN/MEHRABAD , IR)
Text: TAF OIII 220530Z 2206/2312 32005MPS 6000 FEW035CB SCT040 BKN100
Forecast period: 1600 UTC 22 April 2018 to 0000 UTC 23 April 2018
Forecast type: BECOMING: Conditions expected to become as follows by 1800 UTC 22 April 2018
Winds: from the ENE (60 degrees) at 14 MPH (12 knots; 6.2 m/s)
Visibility: 4 miles (6 km)
Ceiling: 10000 feet AGL
Clouds: few clouds at 3500 feet AGL
scattered clouds at 4000 feet AGL
broken clouds at 10000 feet AGL
Weather: no significant weather forecast for this period
Forecast for: OIII (TEHRAN/MEHRABAD , IR)
Text: TAF OIII 220530Z 2206/2312 32005MPS 6000 FEW035CB SCT040 BKN100
Forecast period: 0000 to 1200 UTC 23 April 2018
Forecast type: BECOMING: Conditions expected to become as follows by 0200 UTC 23 April 2018
Winds: from the ENE (60 degrees) at 14 MPH (12 knots; 6.2 m/s)
Visibility: 4 miles (6 km)
Ceiling: 10000 feet AGL
Clouds: few clouds at 3500 feet AGL
scattered clouds at 4000 feet AGL
broken clouds at 10000 feet AGL
Weather: RA  (rain)
Forecast for: OIII (TEHRAN/MEHRABAD , IR)
Text: TAF OIII 220530Z 2206/2312 32005MPS 6000 FEW035CB SCT040 BKN100
Forecast period: 0000 to 1200 UTC 23 April 2018
Forecast type: BECOMING: Conditions expected to become as follows by 0200 UTC 23 April 2018
Winds: from the ENE (60 degrees) at 14 MPH (12 knots; 6.2 m/s)
Visibility: 4 miles (6 km)
Ceiling: 10000 feet AGL
Clouds: few clouds at 3500 feet AGL
scattered clouds at 4000 feet AGL
broken clouds at 10000 feet AGL
Weather: RA  (rain)
Forecast for: OIII (TEHRAN/MEHRABAD , IR)
Text: TAF OIII 220530Z 2206/2312 32005MPS 6000 FEW035CB SCT040 BKN100
Forecast period: 0400 to 1200 UTC 23 April 2018
Forecast type: TEMPORARY: The following changes expected for less than half the time period
Winds: from the WNW (300 degrees) at 22 MPH (19 knots; 9.9 m/s)
Visibility: 2.49 miles (4.01 km)
Ceiling: 9000 feet AGL
Clouds: scattered clouds at 3000 feet AGL
scattered clouds at 3500 feet AGL
overcast cloud deck at 9000 feet AGL
Weather: TS SHRA  (thunderstorm, rain showers)
Forecast for: OIII (TEHRAN/MEHRABAD , IR)
Text: TAF OIII 220530Z 2206/2312 32005MPS 6000 FEW035CB SCT040 BKN100
Forecast period: 0400 to 1200 UTC 23 April 2018
Forecast type: TEMPORARY: The following changes expected for less than half the time period
Winds: from the WNW (300 degrees) at 22 MPH (19 knots; 9.9 m/s)
Visibility: 2.49 miles (4.01 km)
Ceiling: 9000 feet AGL
Clouds: scattered clouds at 3000 feet AGL
scattered clouds at 3500 feet AGL
overcast cloud deck at 9000 feet AGL
Weather: TS SHRA  (thunderstorm, rain showers)

 AIRPORT MAP

 RUNWAY INFORMATION
Runway 09 Runway length 1554 ft Runway width 130 ft
Runway elevation 0 ft Runway displaced threshold 0 ft Runway heading 89
Runway 27 Runway length 1554 ft Runway width 130 ft
Runway elevation 0 ft Runway displaced threshold 0 ft Runway heading 269
Runway 11L Runway length 13098 ft Runway width 148 ft
Runway elevation 3962 ft Runway displaced threshold 0 ft Runway heading 109
Runway 29R Runway length 13098 ft Runway width 148 ft
Runway elevation 3797 ft Runway displaced threshold 0 ft Runway heading 289
Runway 11R Runway length 13248 ft Runway width 197 ft
Runway elevation 3949 ft Runway displaced threshold 3075 ft Runway heading 109
Runway 29L Runway length 13248 ft Runway width 197 ft
Runway elevation 3794 ft Runway displaced threshold 0 ft Runway heading 289

 AIRPORT FREQUENCIES
Type APP Name APP Frequency 119.7 MHZ
Type ATIS Name ATIS Frequency 128 MHZ
Type GND Name GND Frequency 121.7 MHZ
Type TWR Name TWR Frequency 118.1 MHZ

 AIRPORT NEAR NAVIGATION AIDS
Type TACAN Name Tehran Frequency 113300 KHZ
Type VOR-DME Name Tehran Frequency 115300 KHZ



Copyright @ Iran Aseman Virtual Airline